TIARET current weather conditions

sailwx.info

Air temperature 22.0° C
Dewpoint 10.0° C

Last reported at 2014-Aug-28 01:00 UTC.
Time now 2014-Aug-28 03:25 UTC

Location: N 35°15' E 001°26'.
View on Google Maps.

See reports from other nearby stations

  
Tides and Currents Weather Stations Pressure Air Temp Water Temp Dewpoint Dewpoint Depression Visibility Wind Speed Wind Dir Waves Ship Positions
date/time (UTC)wind fromknots sea level pressurealtimeterstation pressurevisibilityair tempwater tempwave heightnotes
2014-Aug-28 02:00 21.0
2014-Aug-28 01:00 22.0
2014-Aug-28 00:00 190 10 23.0
2014-Aug-27 23:00 26.0
2014-Aug-27 22:00 290 4 27.0
2014-Aug-27 21:00 300 8 27.0
2014-Aug-27 20:00 300 6 28.0
2014-Aug-27 19:00 300 10 30.0
2014-Aug-27 18:00 300 12 33.0
2014-Aug-27 17:00 270 14 35.0
2014-Aug-27 16:00 270 10 35.0
2014-Aug-27 15:00 270 12 36.0
2014-Aug-27 14:00 280 12 36.0
2014-Aug-27 13:00 280 8 35.0
2014-Aug-27 12:00 290 8 34.0
2014-Aug-27 11:00 270 5 33.0
2014-Aug-27 10:00 270 4 31.0
2014-Aug-27 09:00 30.0
2014-Aug-27 08:00 25.0
2014-Aug-27 07:00 22.0
2014-Aug-27 06:00 220 6 17.0
2014-Aug-27 05:00 210 6 19.0
2014-Aug-27 04:00 230 8 19.0
2014-Aug-27 03:00 240 8 19.0
2014-Aug-27 01:00 240 4 20.0
2014-Aug-27 00:00 240 8 21.0
2014-Aug-26 23:00 260 6 23.0
2014-Aug-26 22:00 260 6 24.0
2014-Aug-26 21:00 25.0
2014-Aug-26 20:00 280 4 5.427.0
2014-Aug-26 19:00 300 4 5.430.0
2014-Aug-26 18:00 300 12 5.432.0
2014-Aug-26 17:00 320 10 5.434.0
2014-Aug-26 16:00 290 11 5.434.0
2014-Aug-26 15:00 300 12 5.436.0
2014-Aug-26 14:00 290 12 36.0
2014-Aug-26 13:00 290 8 35.0
2014-Aug-26 12:00 290 8 34.0
2014-Aug-26 11:00 280 8 33.0
2014-Aug-26 10:00 280 6 32.0
2014-Aug-26 09:00 270 4 30.0
2014-Aug-26 08:00 240 6 24.0
2014-Aug-26 07:00 180 5 23.0
2014-Aug-26 06:00 180 6 19.0
2014-Aug-26 05:00 220 6 20.0
2014-Aug-26 03:00 230 6 21.0